Time;durP1;ratioP1;P1;durP2;ratioP2;P2;SDS_P1;SDS_P2;PMS_P1;PMS_P2;Temp;Humidity;BMP_temperature;BMP_pressure;BME280_temperature;BME280_humidity;BME280_pressure;Samples;Min_cycle;Max_cycle;Signal;HPM_P1;HPM_P2
2021/10/18 00:01:16;;;;;;;24.65;14.90;;;;;;;4.68;100.00;98574.94;4971354;28;20050;-75
2021/10/18 00:03:42;;;;;;;22.40;14.40;;;;;;;4.41;100.00;98538.69;4979551;28;20031;-81
2021/10/18 00:06:07;;;;;;;23.67;14.25;;;;;;;4.38;100.00;98533.75;4979788;28;20046;-78
2021/10/18 00:08:33;;;;;;;22.60;13.65;;;;;;;4.54;100.00;98568.19;4973377;28;20007;-78
2021/10/18 00:10:59;;;;;;;23.65;15.10;;;;;;;4.32;100.00;98533.63;4979065;28;20012;-77
2021/10/18 00:13:24;;;;;;;24.67;14.70;;;;;;;4.68;100.00;98583.06;4972236;28;20015;-77
2021/10/18 00:15:50;;;;;;;25.17;14.10;;;;;;;4.48;100.00;98552.91;4979219;28;20081;-78
2021/10/18 00:18:16;;;;;;;27.58;13.57;;;;;;;4.46;100.00;98557.72;4970700;28;20031;-78
2021/10/18 00:20:42;;;;;;;23.45;14.07;;;;;;;4.38;100.00;98541.88;4978929;28;20015;-79
2021/10/18 00:23:09;;;;;;;23.60;14.32;;;;;;;4.43;100.00;98560.91;4978966;28;20087;-76
2021/10/18 00:25:35;;;;;;;22.15;14.90;;;;;;;4.37;100.00;98548.34;4973155;28;20058;-78
2021/10/18 00:28:00;;;;;;;25.15;14.60;;;;;;;4.39;100.00;98544.31;4978981;28;20076;-79
2021/10/18 00:30:26;;;;;;;23.33;14.57;;;;;;;4.49;100.00;98557.22;4979210;28;20031;-80
2021/10/18 00:32:52;;;;;;;25.17;14.70;;;;;;;4.41;100.00;98533.25;4975419;28;20019;-79
2021/10/18 00:35:18;;;;;;;24.90;13.73;;;;;;;4.38;100.00;98545.41;4979087;28;20015;-76
2021/10/18 00:37:44;;;;;;;22.92;14.77;;;;;;;4.55;100.00;98557.09;4974708;28;20015;-77
2021/10/18 00:40:10;;;;;;;25.35;13.63;;;;;;;4.74;100.00;98599.19;4978833;28;20039;-79
2021/10/18 00:42:36;;;;;;;26.38;14.77;;;;;;;4.56;100.00;98566.88;4973051;28;20027;-77
2021/10/18 00:45:02;;;;;;;25.58;14.23;;;;;;;4.41;100.00;98547.63;4979115;28;20027;-77
2021/10/18 00:47:28;;;;;;;27.50;13.82;;;;;;;4.74;100.00;98592.94;4978872;28;20007;-79
2021/10/18 00:49:54;;;;;;;23.10;13.55;;;;;;;4.53;100.00;98561.94;4978316;28;20038;-76
2021/10/18 00:52:21;;;;;;;23.35;13.65;;;;;;;4.41;100.00;98550.34;4978619;28;20083;-77
2021/10/18 00:54:48;;;;;;;20.92;13.50;;;;;;;4.49;100.00;98557.22;4978744;28;20038;-78
2021/10/18 00:57:18;;;;;;;23.70;13.77;;;;;;;4.54;100.00;98557.34;4969659;28;20019;-78
2021/10/18 00:59:44;;;;;;;21.05;13.82;;;;;;;4.67;100.00;98574.13;4978646;28;20036;-80
2021/10/18 01:02:11;;;;;;;24.35;13.55;;;;;;;4.46;100.00;98550.41;4978434;28;20035;-79
2021/10/18 01:04:37;;;;;;;24.63;14.70;;;;;;;4.52;100.00;98551.34;4978417;28;20035;-78
2021/10/18 01:07:03;;;;;;;24.65;14.15;;;;;;;4.41;100.00;98530.56;4978431;28;20083;-80
2021/10/18 01:09:28;;;;;;;27.95;13.77;;;;;;;4.55;100.00;98553.56;4974633;28;20033;-78
2021/10/18 01:11:54;;;;;;;25.83;14.95;;;;;;;4.55;100.00;98551.69;4981726;28;20087;-79
2021/10/18 01:14:20;;;;;;;27.05;14.07;;;;;;;4.64;100.00;98547.50;4980106;28;20031;-80
2021/10/18 01:16:46;;;;;;;26.45;14.10;;;;;;;4.64;100.00;98541.25;4971704;28;20108;-80
2021/10/18 01:19:17;;;;;;;29.50;14.68;;;;;;;4.73;100.00;98547.97;4980418;28;20019;-76
2021/10/18 01:21:44;;;;;;;30.30;16.33;;;;;;;4.88;100.00;98571.78;4981929;28;20035;-77
2021/10/18 01:24:11;;;;;;;58.92;19.50;;;;;;;4.64;100.00;98554.81;4980709;28;20007;-78
2021/10/18 01:26:37;;;;;;;56.97;19.92;;;;;;;4.77;100.00;98574.31;4982212;28;20035;-79
2021/10/18 01:29:03;;;;;;;35.90;19.75;;;;;;;4.53;100.00;98534.84;4982168;28;20040;-80
2021/10/18 01:31:29;;;;;;;36.08;19.73;;;;;;;4.72;100.00;98551.72;4981536;28;20019;-81
2021/10/18 01:33:55;;;;;;;34.88;19.67;;;;;;;4.78;100.00;98553.47;4977598;28;20023;-80
2021/10/18 01:36:21;;;;;;;83.60;22.05;;;;;;;4.82;100.00;98552.72;4974712;28;20026;-81
2021/10/18 01:38:47;;;;;;;103.00;21.52;;;;;;;4.78;100.00;98538.03;4981747;28;20039;-79
2021/10/18 01:41:13;;;;;;;113.82;21.42;;;;;;;4.58;100.00;98523.28;4981488;28;20045;-79
2021/10/18 01:43:42;;;;;;;43.25;20.05;;;;;;;4.72;100.00;98535.47;4982152;28;20024;-79
2021/10/18 01:46:07;;;;;;;37.63;18.85;;;;;;;4.91;100.00;98582.97;4982274;28;20011;-77
2021/10/18 01:48:33;;;;;;;100.38;21.63;;;;;;;4.57;100.00;98536.03;4981973;28;20093;-78
2021/10/18 01:50:59;;;;;;;39.00;19.63;;;;;;;4.61;100.00;98533.63;4979117;28;20047;-78
2021/10/18 01:53:25;;;;;;;121.50;21.08;;;;;;;4.63;100.00;98536.94;4982062;28;20055;-78
2021/10/18 01:55:50;;;;;;;108.53;20.60;;;;;;;4.64;100.00;98538.56;4978239;28;20031;-78
2021/10/18 01:58:17;;;;;;;54.63;22.80;;;;;;;4.70;100.00;98534.88;4973739;28;20030;-79
2021/10/18 02:00:43;;;;;;;41.42;20.33;;;;;;;4.94;100.00;98574.38;4981548;28;20007;-79
2021/10/18 02:03:10;;;;;;;71.68;20.30;;;;;;;4.67;100.00;98533.47;4980543;28;20008;-78
2021/10/18 02:05:36;;;;;;;46.45;20.13;;;;;;;4.74;100.00;98534.16;4981756;28;20042;-78
2021/10/18 02:08:02;;;;;;;69.22;20.98;;;;;;;4.75;100.00;98546.66;4981975;28;20057;-78
2021/10/18 02:10:27;;;;;;;104.10;21.15;;;;;;;4.74;100.00;98538.75;4974958;28;20039;-78
2021/10/18 02:12:53;;;;;;;85.30;20.90;;;;;;;4.66;100.00;98536.44;4981619;28;20055;-78
2021/10/18 02:15:19;;;;;;;119.35;21.63;;;;;;;4.86;100.00;98563.91;4981506;28;20031;-80
2021/10/18 02:17:45;;;;;;;84.72;22.02;;;;;;;4.66;100.00;98528.31;4981442;28;20011;-78
2021/10/18 02:20:12;;;;;;;77.55;21.33;;;;;;;4.76;100.00;98536.63;4980749;28;20019;-78
2021/10/18 02:22:38;;;;;;;60.65;20.30;;;;;;;4.74;100.00;98522.50;4976163;28;20023;-78
2021/10/18 02:25:08;;;;;;;48.90;19.95;;;;;;;4.78;100.00;98523.66;4980899;28;20042;-78
2021/10/18 02:27:35;;;;;;;44.50;20.05;;;;;;;4.85;100.00;98524.34;4975496;28;20042;-79
2021/10/18 02:30:05;;;;;;;35.83;19.33;;;;;;;4.97;100.00;98530.50;4981464;28;20019;-78
2021/10/18 02:32:31;;;;;;;32.97;19.02;;;;;;;4.91;100.00;98517.94;4981366;28;20039;-78
2021/10/18 02:34:56;;;;;;;129.32;21.80;;;;;;;5.05;100.00;98530.09;4981265;28;20026;-79
2021/10/18 02:37:22;;;;;;;134.13;21.38;;;;;;;4.90;100.00;98532.53;4973537;28;20015;-78
2021/10/18 02:39:47;;;;;;;135.20;22.25;;;;;;;5.06;100.00;98547.19;4980345;28;20026;-79
2021/10/18 02:42:13;;;;;;;117.50;23.52;;;;;;;4.86;100.00;98520.53;4980616;28;20039;-78
2021/10/18 02:44:39;;;;;;;121.40;23.45;;;;;;;4.83;100.00;98531.88;4980753;28;20075;-77
2021/10/18 02:47:07;;;;;;;168.35;24.25;;;;;;;4.66;100.00;98509.34;4980570;28;20040;-78
2021/10/18 02:49:32;;;;;;;199.60;27.02;;;;;;;4.59;100.00;98511.38;4974648;28;20035;-77
2021/10/18 02:51:58;;;;;;;209.85;25.45;;;;;;;4.64;100.00;98516.88;4980970;28;20039;-78
2021/10/18 02:54:23;;;;;;;88.78;21.08;;;;;;;4.55;100.00;98507.50;4980833;28;20027;-78
2021/10/18 02:56:49;;;;;;;202.02;26.40;;;;;;;4.56;100.00;98518.13;4976869;28;20022;-79
2021/10/18 02:59:15;;;;;;;154.27;22.17;;;;;;;4.55;100.00;98519.16;4980869;28;20066;-78
2021/10/18 03:01:40;;;;;;;54.05;21.05;;;;;;;4.85;100.00;98548.72;4980925;28;20015;-78
2021/10/18 03:04:06;;;;;;;39.65;19.13;;;;;;;4.94;100.00;98557.28;4980696;28;20023;-77
2021/10/18 03:06:31;;;;;;;68.63;20.92;;;;;;;4.76;100.00;98520.38;4974500;28;20011;-77
2021/10/18 03:08:59;;;;;;;117.20;21.55;;;;;;;4.67;100.00;98517.22;4981019;28;20015;-81
2021/10/18 03:11:25;;;;;;;120.55;21.25;;;;;;;4.64;100.00;98519.59;4973331;28;20007;-79
2021/10/18 03:13:50;;;;;;;80.80;20.60;;;;;;;4.86;100.00;98564.72;4979974;28;20098;-78
2021/10/18 03:16:16;;;;;;;85.20;22.70;;;;;;;4.67;100.00;98527.22;4980398;28;20007;-79
2021/10/18 03:18:41;;;;;;;143.82;24.80;;;;;;;4.74;100.00;98550.41;4980513;28;20023;-77
2021/10/18 03:21:07;;;;;;;90.55;20.60;;;;;;;4.90;100.00;98567.78;4980404;28;20008;-78
2021/10/18 03:23:33;;;;;;;70.45;20.83;;;;;;;4.73;100.00;98537.94;4980364;28;20023;-78
2021/10/18 03:25:58;;;;;;;74.03;21.98;;;;;;;4.90;100.00;98535.25;4980353;28;20016;-79
2021/10/18 03:28:24;;;;;;;70.07;21.38;;;;;;;4.91;100.00;98539.63;4980241;28;20043;-78
2021/10/18 03:30:49;;;;;;;42.58;21.50;;;;;;;5.15;100.00;98575.53;4976377;28;20008;-78
2021/10/18 03:33:16;;;;;;;54.85;20.35;;;;;;;4.90;100.00;98556.09;4980263;28;20031;-77
2021/10/18 03:35:42;;;;;;;32.65;15.45;;;;;;;4.75;100.00;98540.41;4975265;28;20031;-78
2021/10/18 03:38:08;;;;;;;51.60;18.10;;;;;;;4.76;100.00;98536.63;4979857;28;20021;-78
2021/10/18 03:40:33;;;;;;;61.60;19.10;;;;;;;4.81;100.00;98534.00;4979999;28;20015;-78
2021/10/18 03:42:59;;;;;;;52.53;17.77;;;;;;;4.86;100.00;98540.34;4979422;28;20030;-78
2021/10/18 03:45:24;;;;;;;64.65;17.17;;;;;;;4.79;100.00;98545.06;4982318;28;20034;-79
2021/10/18 03:47:51;;;;;;;58.63;19.05;;;;;;;5.04;100.00;98579.16;4998803;28;20007;-78
2021/10/18 03:50:16;;;;;;;58.10;17.13;;;;;;;4.89;100.00;98539.00;4999184;28;20108;-78
2021/10/18 03:52:42;;;;;;;35.40;17.13;;;;;;;4.86;100.00;98542.22;4999130;28;20022;-78
2021/10/18 03:55:08;;;;;;;45.90;16.55;;;;;;;4.76;100.00;98553.69;4982359;28;20038;-78
2021/10/18 03:57:34;;;;;;;45.38;17.40;;;;;;;4.69;100.00;98568.47;4998947;28;20047;-78
2021/10/18 04:00:00;;;;;;;44.83;18.08;;;;;;;4.73;100.00;98564.22;4999124;28;20034;-78
2021/10/18 04:02:25;;;;;;;39.03;17.00;;;;;;;4.82;100.00;98568.97;4999120;28;20018;-78
2021/10/18 04:04:51;;;;;;;28.58;16.65;;;;;;;4.79;100.00;98555.13;4999039;28;20031;-78
2021/10/18 04:07:17;;;;;;;40.22;18.13;;;;;;;4.90;100.00;98569.66;4999686;28;20074;-78
2021/10/18 04:09:45;;;;;;;34.30;17.75;;;;;;;5.03;100.00;98589.16;4993981;28;20015;-79
2021/10/18 04:12:11;;;;;;;43.75;17.88;;;;;;;4.95;100.00;98613.94;4998432;28;20165;-78
2021/10/18 04:14:36;;;;;;;43.47;18.63;;;;;;;4.76;100.00;98578.06;4998672;28;20015;-78
2021/10/18 04:17:02;;;;;;;39.85;17.65;;;;;;;4.72;100.00;98557.97;4998847;28;20038;-78
2021/10/18 04:19:28;;;;;;;43.95;19.45;;;;;;;4.72;100.00;98552.56;4998652;28;20034;-78
2021/10/18 04:21:54;;;;;;;56.03;19.83;;;;;;;4.74;100.00;98571.25;4994852;28;20022;-77
2021/10/18 04:24:19;;;;;;;43.53;19.63;;;;;;;4.94;100.00;98615.00;4990822;28;20070;-77
2021/10/18 04:26:45;;;;;;;85.07;20.02;;;;;;;4.75;100.00;98576.47;4998705;28;20046;-78
2021/10/18 04:29:10;;;;;;;50.38;19.63;;;;;;;4.84;100.00;98602.09;4998621;28;20034;-78
2021/10/18 04:31:36;;;;;;;31.00;17.77;;;;;;;5.03;100.00;98597.28;4998622;28;20011;-77
2021/10/18 04:34:02;;;;;;;87.13;21.15;;;;;;;4.74;100.00;98579.41;4995830;28;20098;-78
2021/10/18 04:36:28;;;;;;;65.63;21.25;;;;;;;4.92;100.00;98598.16;4998450;28;20007;-80
2021/10/18 04:38:54;;;;;;;77.95;21.27;;;;;;;4.93;100.00;98593.56;4995376;28;20046;-80
2021/10/18 04:41:20;;;;;;;61.30;20.98;;;;;;;5.13;100.00;98621.88;4990753;28;20019;-77
2021/10/18 04:43:45;;;;;;;73.22;23.65;;;;;;;4.74;100.00;98609.19;5001939;28;20018;-78
2021/10/18 04:46:12;;;;;;;45.03;21.67;;;;;;;4.75;100.00;98602.72;5004985;28;20023;-78
2021/10/18 04:48:37;;;;;;;56.50;24.73;;;;;;;4.90;100.00;98632.81;5004568;28;20022;-79
2021/10/18 04:51:03;;;;;;;46.65;21.00;;;;;;;4.81;100.00;98604.47;5004711;28;20027;-79
2021/10/18 04:53:28;;;;;;;36.17;17.00;;;;;;;4.86;100.00;98618.94;5004827;28;20017;-78
2021/10/18 04:55:54;;;;;;;33.25;18.60;;;;;;;4.76;100.00;98590.84;5001517;28;20015;-79
2021/10/18 04:58:19;;;;;;;41.08;18.00;;;;;;;4.81;100.00;98604.47;4997048;28;20025;-78
2021/10/18 05:00:48;;;;;;;38.00;17.02;;;;;;;5.10;100.00;98646.78;5005009;28;20022;-79
2021/10/18 05:03:13;;;;;;;38.13;17.60;;;;;;;4.81;100.00;98629.69;5004791;28;20003;-78
2021/10/18 05:05:40;;;;;;;35.38;18.85;;;;;;;4.88;100.00;98615.16;5001885;28;20045;-77
2021/10/18 05:08:08;;;;;;;31.33;17.90;;;;;;;4.85;100.00;98611.06;5003425;28;20015;-75
2021/10/18 05:10:35;;;;;;;32.15;17.38;;;;;;;4.94;100.00;98620.44;5003562;28;20038;-79
2021/10/18 05:13:01;;;;;;;46.80;17.65;;;;;;;5.10;100.00;98646.78;5004201;28;20027;-78
2021/10/18 05:15:27;;;;;;;38.72;16.67;;;;;;;4.97;100.00;98630.78;4997576;28;20021;-78
2021/10/18 05:17:53;;;;;;;43.95;21.45;;;;;;;4.85;100.00;98632.72;5003809;28;20050;-80
2021/10/18 05:20:19;;;;;;;34.22;18.10;;;;;;;4.93;100.00;98640.47;5004451;28;20027;-78
2021/10/18 05:22:47;;;;;;;37.60;18.50;;;;;;;5.00;100.00;98651.16;5004475;28;20038;-79
2021/10/18 05:25:13;;;;;;;53.63;18.67;;;;;;;4.86;100.00;98623.53;5004170;28;20011;-79
2021/10/18 05:27:39;;;;;;;57.45;17.42;;;;;;;5.14;100.00;98652.50;4988885;28;20491;-78
2021/10/18 05:30:06;;;;;;;53.10;17.25;;;;;;;5.02;100.00;98647.13;4995034;28;20035;-80
2021/10/18 05:32:33;;;;;;;51.38;17.35;;;;;;;4.98;100.00;98656.81;4998169;28;20027;-78
2021/10/18 05:34:59;;;;;;;34.55;19.05;;;;;;;4.92;100.00;98665.91;4998464;28;20031;-79
2021/10/18 05:37:24;;;;;;;62.55;19.92;;;;;;;4.91;100.00;98666.16;4986281;28;20082;-81
2021/10/18 05:39:50;;;;;;;48.55;19.90;;;;;;;4.97;100.00;98668.75;4998680;28;20049;-79
2021/10/18 05:42:16;;;;;;;48.05;20.50;;;;;;;5.00;100.00;98672.84;4983595;28;20035;-78
2021/10/18 05:44:41;;;;;;;46.95;19.95;;;;;;;5.05;100.00;98676.47;4983150;28;20454;-80
2021/10/18 05:47:06;;;;;;;58.67;22.15;;;;;;;5.12;100.00;98684.47;4983592;28;20038;-80
2021/10/18 05:49:32;;;;;;;37.25;18.98;;;;;;;5.15;100.00;98687.53;4983532;28;20499;-81
2021/10/18 05:51:58;;;;;;;53.50;20.42;;;;;;;4.98;100.00;98681.22;4982431;28;20039;-80
2021/10/18 05:54:23;;;;;;;42.10;20.73;;;;;;;5.01;100.00;98688.06;4988263;28;20063;-76
2021/10/18 05:56:50;;;;;;;45.72;19.42;;;;;;;5.03;100.00;98697.59;4983539;28;20027;-81
2021/10/18 05:59:16;;;;;;;43.30;19.55;;;;;;;5.12;100.00;98692.59;4974084;28;20031;-79
2021/10/18 06:01:41;;;;;;;36.13;20.85;;;;;;;5.24;100.00;98696.09;4979117;28;20031;-80
2021/10/18 06:04:07;;;;;;;53.35;18.85;;;;;;;5.17;100.00;98701.66;4979143;28;20044;-80
2021/10/18 06:06:34;;;;;;;50.80;17.98;;;;;;;5.13;100.00;98700.50;4973968;28;20041;-80
2021/10/18 06:09:00;;;;;;;40.53;17.50;;;;;;;5.16;100.00;98710.88;4980546;28;20388;-80
2021/10/18 06:11:25;;;;;;;39.15;17.83;;;;;;;5.21;100.00;98710.97;4981587;28;20113;-80
2021/10/18 06:13:51;;;;;;;54.78;19.67;;;;;;;5.21;100.00;98713.66;4979680;28;20031;-80
2021/10/18 06:16:16;;;;;;;45.28;19.35;;;;;;;5.24;100.00;98712.34;4979398;28;20031;-80
2021/10/18 06:18:42;;;;;;;49.33;20.27;;;;;;;5.24;100.00;98713.19;4973152;28;20440;-80
2021/10/18 06:21:07;;;;;;;38.22;18.13;;;;;;;5.25;100.00;98720.25;4974271;28;20488;-79
2021/10/18 06:23:35;;;;;;;39.15;18.00;;;;;;;5.33;100.00;98725.28;4972198;28;20086;-80
2021/10/18 06:26:00;;;;;;;33.97;16.95;;;;;;;5.30;100.00;98728.47;4971542;28;20033;-80
2021/10/18 06:28:26;;;;;;;35.50;16.15;;;;;;;5.18;100.00;98718.75;4969400;28;20035;-79
2021/10/18 06:30:51;;;;;;;34.17;17.50;;;;;;;5.24;100.00;98729.44;4971855;28;20083;-81
2021/10/18 06:33:20;;;;;;;32.75;17.67;;;;;;;5.23;100.00;98738.63;4973883;28;20044;-81
2021/10/18 06:35:47;;;;;;;38.50;17.55;;;;;;;5.25;100.00;98739.25;4974747;28;20444;-80
2021/10/18 06:38:14;;;;;;;35.90;16.67;;;;;;;5.24;100.00;98745.72;4983556;28;20031;-80
2021/10/18 06:40:41;;;;;;;45.15;16.15;;;;;;;5.22;100.00;98758.72;4972024;28;20027;-81
2021/10/18 06:43:07;;;;;;;33.95;16.83;;;;;;;5.25;100.00;98765.53;4976797;28;20027;-81
2021/10/18 06:45:33;;;;;;;43.58;16.27;;;;;;;5.29;100.00;98764.78;4974875;28;21393;-81
2021/10/18 06:47:58;;;;;;;32.28;16.25;;;;;;;5.33;100.00;98765.97;4969475;28;20041;-80
2021/10/18 06:50:27;;;;;;;40.60;16.42;;;;;;;5.45;100.00;98762.41;4965213;28;20047;-81
2021/10/18 06:52:53;;;;;;;34.85;17.30;;;;;;;5.48;100.00;98773.59;4972225;28;20055;-79
2021/10/18 06:55:20;;;;;;;32.38;17.65;;;;;;;5.63;100.00;98776.59;4974705;28;20034;-80
2021/10/18 06:57:45;;;;;;;28.30;16.90;;;;;;;5.65;100.00;98779.03;4968726;28;20034;-80
2021/10/18 07:00:11;;;;;;;36.25;17.45;;;;;;;5.64;100.00;98783.66;4973523;28;20030;-79
2021/10/18 07:02:39;;;;;;;31.58;16.77;;;;;;;5.70;100.00;98779.16;4971898;28;20065;-79
2021/10/18 07:05:05;;;;;;;39.17;17.95;;;;;;;5.60;100.00;98776.25;4965766;28;20514;-80
2021/10/18 07:07:31;;;;;;;38.90;21.02;;;;;;;5.60;100.00;98765.41;4967001;28;20035;-79
2021/10/18 07:10:00;;;;;;;41.50;19.23;;;;;;;5.67;100.00;98771.50;4965907;28;20022;-80
2021/10/18 07:12:29;;;;;;;40.60;18.67;;;;;;;5.82;100.00;98788.88;4974846;28;20384;-79
2021/10/18 07:14:56;;;;;;;30.65;16.52;;;;;;;5.62;100.00;98757.81;4969953;28;20035;-80
2021/10/18 07:17:22;;;;;;;31.40;17.33;;;;;;;5.90;100.00;98798.53;4967075;28;20057;-79
2021/10/18 07:19:49;;;;;;;40.53;17.85;;;;;;;5.93;100.00;98798.06;4965315;28;20031;-79
2021/10/18 07:22:16;;;;;;;33.33;16.48;;;;;;;5.77;100.00;98802.34;4969323;28;20078;-78
2021/10/18 07:24:41;;;;;;;32.33;17.52;;;;;;;5.92;100.00;98790.97;4958343;28;20027;-77
2021/10/18 07:27:07;;;;;;;32.67;17.02;;;;;;;6.02;100.00;98806.63;4954319;28;20090;-78
2021/10/18 07:29:32;;;;;;;28.00;16.50;;;;;;;5.98;100.00;98805.47;4949075;28;20453;-79
2021/10/18 07:31:58;;;;;;;28.40;15.98;;;;;;;6.03;100.00;98800.94;4953599;28;20094;-78
2021/10/18 07:34:23;;;;;;;33.88;17.30;;;;;;;5.95;100.00;98800.53;4956574;28;20023;-79
2021/10/18 07:36:49;;;;;;;33.28;17.30;;;;;;;6.11;100.00;98807.88;4958789;28;20050;-79
2021/10/18 07:39:20;;;;;;;32.60;16.70;;;;;;;6.26;100.00;98814.41;4961140;28;20023;-79
2021/10/18 07:41:47;;;;;;;30.75;17.60;;;;;;;6.25;100.00;98812.75;4961531;28;20023;-80
2021/10/18 07:44:12;;;;;;;39.03;18.38;;;;;;;6.41;100.00;98817.38;4970255;28;20388;-79
2021/10/18 07:46:38;;;;;;;36.50;19.15;;;;;;;6.20;100.00;98811.84;4959558;28;20635;-80
2021/10/18 07:49:04;;;;;;;50.60;20.33;;;;;;;5.72;100.00;98817.72;4961871;28;20082;-80
2021/10/18 07:51:29;;;;;;;37.28;20.00;;;;;;;6.04;100.00;98824.34;4968419;28;20058;-80
2021/10/18 07:53:56;;;;;;;40.35;19.95;;;;;;;6.27;100.00;98816.03;4973259;28;20031;-79
2021/10/18 07:56:21;;;;;;;33.75;18.80;;;;;;;6.64;100.00;98826.41;4980451;28;20038;-79
2021/10/18 07:58:46;;;;;;;31.92;17.30;;;;;;;6.90;100.00;98828.41;4974851;28;20030;-79
2021/10/18 08:01:12;;;;;;;30.13;18.95;;;;;;;7.03;100.00;98825.34;4980060;28;20054;-79
2021/10/18 08:03:37;;;;;;;33.08;18.95;;;;;;;6.88;100.00;98822.41;4971405;28;20019;-78
2021/10/18 08:06:03;;;;;;;34.53;18.08;;;;;;;7.09;100.00;98834.41;4977715;28;20031;-79
2021/10/18 08:08:30;;;;;;;31.45;17.92;;;;;;;6.98;100.00;98828.81;4977106;28;20023;-79
2021/10/18 08:10:57;;;;;;;34.63;18.17;;;;;;;6.93;100.00;98830.63;4976218;28;20031;-79
2021/10/18 08:13:22;;;;;;;29.38;17.42;;;;;;;6.91;100.00;98835.50;4963912;29;20031;-79
2021/10/18 08:15:48;;;;;;;36.30;18.27;;;;;;;6.98;100.00;98828.00;4940799;29;20023;-79
2021/10/18 08:18:13;;;;;;;35.13;19.30;;;;;;;7.05;100.00;98834.06;4955476;28;20027;-79
2021/10/18 08:20:40;;;;;;;30.98;18.55;;;;;;;7.01;100.00;98832.94;4956120;29;20031;-79
2021/10/18 08:23:07;;;;;;;36.67;18.83;;;;;;;6.99;100.00;98824.19;4956329;29;20035;-79
2021/10/18 08:25:32;;;;;;;32.88;19.40;;;;;;;6.95;100.00;98828.50;4948488;28;20042;-80
2021/10/18 08:27:58;;;;;;;34.90;18.90;;;;;;;6.91;100.00;98827.34;4956226;28;20035;-79
2021/10/18 08:30:23;;;;;;;32.38;18.77;;;;;;;6.96;100.00;98833.69;4948608;29;20030;-79
2021/10/18 08:32:48;;;;;;;39.53;19.50;;;;;;;6.93;100.00;98842.34;4954658;28;20066;-80
2021/10/18 08:35:14;;;;;;;33.92;20.02;;;;;;;6.90;100.00;98837.41;4956233;29;20053;-79
2021/10/18 08:40:37;;;;;;;33.83;19.67;;;;;;;6.99;100.00;98840.50;4956480;29;20455;-79
2021/10/18 08:45:29;;;;;;;37.50;19.92;;;;;;;7.45;100.00;98837.34;4965029;28;20074;-79
2021/10/18 08:47:55;;;;;;;37.85;20.33;;;;;;;7.70;100.00;98853.16;4967868;28;20078;-81
2021/10/18 08:50:22;;;;;;;33.42;20.95;;;;;;;7.86;100.00;98857.69;4965695;28;20055;-79
2021/10/18 08:52:48;;;;;;;37.83;22.65;;;;;;;7.70;100.00;98847.72;4973508;28;20090;-78
2021/10/18 08:55:13;;;;;;;37.33;21.08;;;;;;;7.55;100.00;98845.63;4973289;28;20034;-78
2021/10/18 08:57:39;;;;;;;38.63;22.25;;;;;;;7.50;100.00;98848.28;4966752;28;20047;-79
2021/10/18 09:00:06;;;;;;;39.60;22.65;;;;;;;7.49;100.00;98840.38;4972348;28;20047;-78
2021/10/18 09:02:39;;;;;;;34.97;21.70;;;;;;;7.81;100.00;98844.03;4975790;28;20042;-79
2021/10/18 09:05:07;;;;;;;36.42;21.38;;;;;;;8.52;100.00;98856.47;4973792;28;20026;-79
2021/10/18 09:07:37;;;;;;;33.40;20.50;;;;;;;9.12;100.00;98866.19;4973584;28;20065;-80
2021/10/18 09:10:12;;;;;;;32.65;20.10;;;;;;;9.85;96.98;98856.16;4974536;28;20110;-79
2021/10/18 09:12:40;;;;;;;32.22;18.70;;;;;;;10.10;95.14;98851.59;4973678;28;20400;-78
2021/10/18 09:15:24;;;;;;;30.77;19.67;;;;;;;10.60;89.18;98856.34;4970366;28;20034;-78
2021/10/18 09:17:58;;;;;;;33.90;19.13;;;;;;;10.52;88.13;98856.91;4968424;28;20038;-79
2021/10/18 09:20:24;;;;;;;34.03;19.45;;;;;;;11.49;83.59;98866.63;4974091;28;20058;-78
2021/10/18 09:22:52;;;;;;;34.15;18.38;;;;;;;12.47;78.06;98880.41;4973187;28;20506;-78
2021/10/18 09:25:32;;;;;;;31.42;18.40;;;;;;;12.57;76.30;98863.06;4963356;28;20455;-79
2021/10/18 09:28:15;;;;;;;27.98;17.70;;;;;;;13.22;74.20;98875.44;4971605;28;20622;-79
2021/10/18 09:30:46;;;;;;;29.10;18.90;;;;;;;13.64;71.05;98875.53;4972644;28;20411;-79
2021/10/18 09:33:41;;;;;;;26.60;18.23;;;;;;;13.70;71.00;98871.63;4981618;28;20026;-79
2021/10/18 09:36:29;;;;;;;29.00;18.77;;;;;;;14.09;69.33;98857.66;4966999;28;20072;-79
2021/10/18 09:39:15;;;;;;;30.17;17.30;;;;;;;14.25;68.94;98861.03;4965721;28;20022;-79
2021/10/18 09:41:57;;;;;;;27.27;18.50;;;;;;;15.04;65.86;98862.81;4952915;28;20066;-80
2021/10/18 09:44:47;;;;;;;30.67;19.45;;;;;;;14.45;66.84;98850.56;4958323;28;20114;-80
2021/10/18 10:52:42;;;;;;;35.53;23.67;;;;;;;14.11;72.52;98854.59;4937652;28;20126;-81
2021/10/18 10:55:32;;;;;;;40.08;25.70;;;;;;;14.09;73.67;98852.16;4977334;28;20037;-80
2021/10/18 10:57:59;;;;;;;38.63;22.10;;;;;;;14.87;70.01;98849.63;4970180;28;20495;-80
2021/10/18 11:00:51;;;;;;;36.78;21.77;;;;;;;14.87;68.39;98855.13;4978860;28;20409;-79
2021/10/18 11:03:20;;;;;;;33.42;22.23;;;;;;;15.13;69.30;98855.47;4982136;28;20043;-79
2021/10/18 11:05:59;;;;;;;32.15;21.70;;;;;;;15.94;65.23;98865.78;4975364;28;20039;-80
2021/10/18 11:08:45;;;;;;;35.03;22.10;;;;;;;16.70;61.85;98855.00;4972307;28;20023;-78
2021/10/18 11:11:17;;;;;;;41.38;21.95;;;;;;;16.29;63.04;98855.13;4984544;28;20042;-81
2021/10/18 11:13:51;;;;;;;33.08;22.02;;;;;;;15.32;65.46;98847.16;4978515;28;20086;-80
2021/10/18 11:16:22;;;;;;;31.75;20.20;;;;;;;14.77;67.04;98846.19;4984806;28;20759;-80
2021/10/18 11:18:49;;;;;;;42.10;22.00;;;;;;;14.09;69.88;98854.91;4976963;28;20030;-79
2021/10/18 11:21:24;;;;;;;30.77;19.92;;;;;;;13.67;72.73;98852.97;4965075;28;20039;-79
2021/10/18 11:23:57;;;;;;;;;;;;;;;14.10;71.73;98847.44;4986484;28;20061;-79
2021/10/18 11:26:24;;;;;;;26.88;17.13;;;;;;;14.11;71.46;98832.59;4970045;28;19962;-79
2021/10/18 11:28:58;;;;;;;23.35;15.40;;;;;;;13.90;70.56;98838.38;4982228;28;20035;-79
2021/10/18 11:31:35;;;;;;;28.52;16.58;;;;;;;14.18;70.84;98835.78;4963026;28;20070;-79
2021/10/18 11:34:08;;;;;;;22.63;15.00;;;;;;;14.22;69.25;98834.88;4975755;28;20066;-79
2021/10/18 11:36:40;;;;;;;25.30;13.95;;;;;;;14.46;69.65;98830.19;4968355;28;20046;-80
2021/10/18 11:39:12;;;;;;;19.52;13.68;;;;;;;14.66;67.65;98826.25;4979457;28;20114;-79
2021/10/18 11:42:11;;;;;;;22.48;14.57;;;;;;;14.29;67.67;98818.81;4984591;28;20030;-80
2021/10/18 11:44:53;;;;;;;21.88;13.73;;;;;;;14.09;69.71;98815.56;4965686;28;20034;-75
2021/10/18 11:47:37;;;;;;;26.17;15.55;;;;;;;13.87;70.93;98811.47;4971156;28;20093;-77
2021/10/18 11:50:11;;;;;;;22.35;14.10;;;;;;;14.05;69.90;98806.25;4970873;28;20050;-75
2021/10/18 11:52:40;;;;;;;24.02;14.75;;;;;;;13.66;70.65;98814.75;4975087;28;20110;-76
2021/10/18 11:55:11;;;;;;;24.10;15.43;;;;;;;13.85;70.87;98810.94;4966862;28;20385;-76
2021/10/18 11:57:42;;;;;;;22.10;14.32;;;;;;;13.95;70.45;98802.53;4973424;28;20039;-76
2021/10/18 12:00:13;;;;;;;29.48;15.10;;;;;;;13.71;71.33;98811.97;4960851;28;20106;-76
2021/10/18 12:02:42;;;;;;;21.33;14.27;;;;;;;13.50;73.53;98811.38;4961895;28;20046;-77
2021/10/18 12:05:09;;;;;;;24.08;14.15;;;;;;;13.60;72.46;98805.75;4970055;28;20029;-76
2021/10/18 12:07:40;;;;;;;20.15;14.00;;;;;;;13.79;72.13;98803.84;4966275;28;20034;-78
2021/10/18 12:10:21;;;;;;;23.40;14.27;;;;;;;13.93;71.74;98796.53;4973637;28;20034;-78
2021/10/18 12:13:41;;;;;;;21.55;13.50;;;;;;;14.20;70.58;98789.53;4964629;28;20070;-75
2021/10/18 12:16:09;;;;;;;19.67;13.25;;;;;;;14.23;70.50;98797.19;4927034;29;20400;-76
2021/10/18 12:19:08;;;;;;;24.40;13.98;;;;;;;14.08;71.66;98789.16;4955177;28;20035;-77
2021/10/18 12:21:41;;;;;;;19.60;13.40;;;;;;;13.98;70.97;98795.63;4965003;28;20456;-79
2021/10/18 12:24:12;;;;;;;16.10;11.75;;;;;;;14.04;71.64;98785.34;4965035;28;20403;-78
2021/10/18 12:26:43;;;;;;;18.70;13.30;;;;;;;14.18;71.73;98767.00;4962644;28;20023;-78
2021/10/18 12:29:12;;;;;;;18.20;12.23;;;;;;;14.28;72.05;98777.88;4971304;28;20657;-77
2021/10/18 12:31:46;;;;;;;18.00;12.55;;;;;;;14.22;71.83;98776.31;4966919;28;20039;-79